createdAt,value
2019-04-22T00:01:04.886Z,52.00
2019-04-22T00:03:39.135Z,52.00
2019-04-22T00:06:24.242Z,52.00
2019-04-22T00:08:58.738Z,52.00
2019-04-22T00:13:58.177Z,52.00
2019-04-22T00:16:34.485Z,52.00
2019-04-22T00:19:11.340Z,52.10
2019-04-22T00:21:26.360Z,52.00
2019-04-22T00:23:54.916Z,52.00
2019-04-22T00:26:23.393Z,52.00
2019-04-22T00:29:08.119Z,52.00
2019-04-22T00:31:58.933Z,52.00
2019-04-22T00:34:29.446Z,52.00
2019-04-22T00:37:02.954Z,51.90
2019-04-22T00:39:37.292Z,52.60
2019-04-22T00:42:01.861Z,52.00
2019-04-22T00:44:35.293Z,52.00
2019-04-22T00:47:09.281Z,52.20
2019-04-22T00:52:04.956Z,52.20
2019-04-22T00:54:29.575Z,52.20
2019-04-22T00:57:01.478Z,52.30
2019-04-22T00:59:33.914Z,52.30
2019-04-22T01:02:03.700Z,52.30
2019-04-22T01:04:34.762Z,52.30
2019-04-22T01:07:02.071Z,52.30
2019-04-22T01:09:32.611Z,52.40
2019-04-22T01:12:00.113Z,52.40
2019-04-22T01:14:29.436Z,52.40
2019-04-22T01:19:36.677Z,52.70
2019-04-22T01:21:58.544Z,52.40
2019-04-22T01:24:22.132Z,52.40
2019-04-22T01:26:49.258Z,53.00
2019-04-22T01:29:10.971Z,52.50
2019-04-22T01:31:34.366Z,52.50
2019-04-22T01:34:10.299Z,52.50
2019-04-22T01:36:51.732Z,52.50
2019-04-22T01:39:23.343Z,52.50
2019-04-22T01:44:29.437Z,52.50
2019-04-22T01:46:58.501Z,52.60
2019-04-22T01:49:27.619Z,52.50
2019-04-22T01:52:01.400Z,53.10
2019-04-22T01:54:29.825Z,52.50
2019-04-22T01:56:53.853Z,52.60
2019-04-22T01:59:17.693Z,52.50
2019-04-22T02:04:26.886Z,52.60
2019-04-22T02:09:34.657Z,52.50
2019-04-22T02:11:56.912Z,52.50
2019-04-22T02:14:29.219Z,52.50
2019-04-22T02:16:57.637Z,52.50
2019-04-22T02:19:24.424Z,52.50
2019-04-22T02:21:48.825Z,52.50
2019-04-22T02:24:26.483Z,52.50
2019-04-22T02:26:49.884Z,52.50
2019-04-22T02:29:23.228Z,52.60
2019-04-22T02:32:07.522Z,52.50
2019-04-22T02:36:43.244Z,52.60
2019-04-22T02:39:19.805Z,52.20
2019-04-22T02:41:49.917Z,52.60
2019-04-22T02:44:26.328Z,52.60
2019-04-22T02:49:25.194Z,52.60
2019-04-22T02:56:44.109Z,52.70
2019-04-22T03:09:30.043Z,52.50
2019-04-22T03:12:00.914Z,52.60
2019-04-22T03:14:22.862Z,52.70
2019-04-22T03:16:48.807Z,52.50
2019-04-22T03:19:25.485Z,52.60
2019-04-22T03:21:51.921Z,52.60
2019-04-22T03:26:57.004Z,52.50
2019-04-22T03:29:14.995Z,52.60
2019-04-22T03:39:37.699Z,52.60
2019-04-22T03:44:38.831Z,52.60
2019-04-22T03:47:05.092Z,52.60
2019-04-22T03:49:37.229Z,52.60
2019-04-22T03:52:11.191Z,52.60
2019-04-22T03:59:35.331Z,52.60
2019-04-22T04:04:31.195Z,52.50
2019-04-22T04:09:24.254Z,52.60
2019-04-22T04:14:26.713Z,53.00
2019-04-22T04:16:56.201Z,52.60
2019-04-22T04:19:28.192Z,52.60
2019-04-22T04:21:50.476Z,52.60
2019-04-22T04:26:54.901Z,52.60
2019-04-22T04:29:36.078Z,52.60
2019-04-22T04:31:53.298Z,52.70
2019-04-22T04:34:28.605Z,52.70
2019-04-22T04:37:03.444Z,52.70
2019-04-22T04:39:34.902Z,52.60
2019-04-22T04:41:57.016Z,52.70
2019-04-22T04:44:22.741Z,52.70
2019-04-22T04:47:06.046Z,52.60
2019-04-22T04:51:53.680Z,52.50
2019-04-22T04:59:30.627Z,52.40
2019-04-22T05:02:00.213Z,52.50
2019-04-22T05:06:59.869Z,52.50
2019-04-22T05:09:26.217Z,52.50
2019-04-22T05:14:17.264Z,52.70
2019-04-22T05:16:52.246Z,52.80
2019-04-22T05:21:53.100Z,52.90
2019-04-22T05:24:24.296Z,52.80
2019-04-22T05:26:48.455Z,52.70
2019-04-22T05:29:22.078Z,52.70
2019-04-22T05:31:52.300Z,52.80
2019-04-22T05:36:50.230Z,52.80
2019-04-22T05:39:16.773Z,53.30
2019-04-22T05:41:48.379Z,51.00
2019-04-22T05:44:39.565Z,49.70
2019-04-22T05:46:49.844Z,49.00
2019-04-22T05:49:18.078Z,48.90
2019-04-22T05:51:48.552Z,49.40
2019-04-22T05:54:22.371Z,49.50
2019-04-22T05:57:04.002Z,49.90
2019-04-22T05:59:17.641Z,50.20
2019-04-22T06:02:21.052Z,50.20
2019-04-22T06:04:14.705Z,50.20
2019-04-22T06:06:51.788Z,50.00
2019-04-22T06:11:36.003Z,49.70
2019-04-22T06:14:13.917Z,49.80
2019-04-22T06:19:31.727Z,50.20
2019-04-22T06:22:06.869Z,50.20
2019-04-22T06:24:23.523Z,50.60
2019-04-22T06:39:26.518Z,50.50
2019-04-22T06:41:51.671Z,50.00
2019-04-22T06:44:18.000Z,49.90
2019-04-22T06:46:47.201Z,49.80
2019-04-22T06:49:20.978Z,49.70
2019-04-22T06:51:46.804Z,49.90
2019-04-22T06:54:14.135Z,49.50
2019-04-22T06:56:48.497Z,49.60
2019-04-22T06:59:18.866Z,49.40
2019-04-22T07:01:50.007Z,49.20
2019-04-22T07:04:16.685Z,48.90
2019-04-22T07:06:48.544Z,49.10
2019-04-22T07:11:54.418Z,49.10
2019-04-22T07:14:35.193Z,48.90
2019-04-22T07:16:54.237Z,48.80
2019-04-22T07:19:20.603Z,48.70
2019-04-22T07:21:50.091Z,49.00
2019-04-22T07:26:51.173Z,49.10
2019-04-22T07:29:23.654Z,49.20
2019-04-22T07:31:56.226Z,49.10
2019-04-22T07:34:28.302Z,49.00
2019-04-22T07:36:58.766Z,49.00
2019-04-22T07:39:23.618Z,48.90
2019-04-22T07:41:50.868Z,48.90
2019-04-22T07:44:25.842Z,48.90
2019-04-22T07:46:59.345Z,48.80
2019-04-22T07:49:26.827Z,48.90
2019-04-22T07:51:49.506Z,49.00
2019-04-22T07:54:24.355Z,48.90
2019-04-22T07:56:53.840Z,49.00
2019-04-22T07:59:22.284Z,49.00
2019-04-22T08:01:50.908Z,49.10
2019-04-22T08:04:30.238Z,49.80
2019-04-22T08:06:52.261Z,49.20
2019-04-22T08:09:22.796Z,49.20
2019-04-22T08:11:52.485Z,49.20
2019-04-22T08:14:27.049Z,49.20
2019-04-22T08:16:53.315Z,49.30
2019-04-22T08:19:20.518Z,49.40
2019-04-22T08:21:52.091Z,49.30
2019-04-22T08:24:25.309Z,50.10
2019-04-22T08:27:04.582Z,49.60
2019-04-22T08:29:21.455Z,49.50
2019-04-22T08:31:57.998Z,49.50
2019-04-22T08:34:23.260Z,49.60
2019-04-22T08:39:18.803Z,49.80
2019-04-22T08:41:39.813Z,50.00
2019-04-22T08:44:26.122Z,49.80
2019-04-22T08:46:56.187Z,49.70
2019-04-22T08:49:10.198Z,49.60
2019-04-22T08:51:42.476Z,49.70
2019-04-22T08:54:34.096Z,49.90
2019-04-22T09:01:46.953Z,50.10
2019-04-22T09:04:12.204Z,50.20
2019-04-22T09:07:12.988Z,50.80
2019-04-22T09:09:21.225Z,50.20
2019-04-22T09:14:22.871Z,50.20
2019-04-22T09:17:04.100Z,50.20
2019-04-22T09:19:20.826Z,50.20
2019-04-22T09:24:16.554Z,50.20
2019-04-22T09:26:47.417Z,50.20
2019-04-22T09:29:22.507Z,50.20
2019-04-22T09:31:57.350Z,50.30
2019-04-22T09:34:14.070Z,50.10
2019-04-22T09:36:54.010Z,50.10
2019-04-22T09:39:19.271Z,50.00
2019-04-22T09:41:48.414Z,50.00
2019-04-22T09:44:16.521Z,49.90
2019-04-22T09:46:48.381Z,50.20
2019-04-22T09:49:18.925Z,50.20
2019-04-22T09:51:48.511Z,50.30
2019-04-22T09:54:22.145Z,50.30
2019-04-22T09:56:49.340Z,50.20
2019-04-22T09:59:13.864Z,50.30
2019-04-22T10:02:02.476Z,50.30
2019-04-22T10:04:10.001Z,50.30
2019-04-22T10:06:42.335Z,50.30
2019-04-22T10:11:47.074Z,50.40
2019-04-22T10:14:19.314Z,50.40
2019-04-22T10:16:51.832Z,50.40
2019-04-22T10:19:18.743Z,50.30
2019-04-22T10:24:13.517Z,50.70
2019-04-22T10:29:17.052Z,50.70
2019-04-22T10:31:52.755Z,50.70
2019-04-22T10:34:10.505Z,50.70
2019-04-22T10:36:25.632Z,50.70
2019-04-22T10:38:54.852Z,50.70
2019-04-22T10:41:23.223Z,50.70
2019-04-22T10:43:52.848Z,50.70
2019-04-22T10:46:22.180Z,50.80
2019-04-22T10:48:50.670Z,51.20
2019-04-22T10:51:19.035Z,51.30
2019-04-22T10:53:47.228Z,50.70
2019-04-22T10:56:16.857Z,50.60
2019-04-22T10:58:46.672Z,50.60
2019-04-22T11:01:15.867Z,50.70
2019-04-22T11:03:45.489Z,50.80
2019-04-22T11:06:14.988Z,50.90
2019-04-22T11:08:50.191Z,50.80
2019-04-22T11:11:25.967Z,50.90
2019-04-22T11:13:44.122Z,50.70
2019-04-22T11:16:13.809Z,50.70
2019-04-22T11:18:43.437Z,50.70
2019-04-22T11:21:11.630Z,50.60
2019-04-22T11:23:40.696Z,50.60
2019-04-22T11:26:10.131Z,50.60
2019-04-22T11:28:38.377Z,50.60
2019-04-22T11:31:06.591Z,50.60
2019-04-22T11:33:34.595Z,50.60
2019-04-22T11:36:03.844Z,50.70
2019-04-22T11:38:33.008Z,50.70
2019-04-22T11:41:03.112Z,50.90
2019-04-22T11:43:30.695Z,50.90
2019-04-22T11:45:59.540Z,50.90
2019-04-22T11:48:29.191Z,51.00
2019-04-22T11:50:57.882Z,51.00
2019-04-22T11:53:26.988Z,51.00
2019-04-22T11:55:55.116Z,51.00
2019-04-22T11:58:24.453Z,51.00
2019-04-22T12:00:53.456Z,51.00
2019-04-22T12:03:22.914Z,51.00
2019-04-22T12:05:52.084Z,51.00
2019-04-22T12:08:20.770Z,51.00
2019-04-22T12:10:54.480Z,51.00
2019-04-22T12:13:19.834Z,51.00
2019-04-22T12:15:49.119Z,51.00
2019-04-22T12:18:19.557Z,51.00
2019-04-22T12:20:47.628Z,51.10
2019-04-22T12:23:17.031Z,51.10
2019-04-22T12:25:53.130Z,51.20
2019-04-22T12:28:15.231Z,51.10
2019-04-22T12:30:43.576Z,51.20
2019-04-22T12:33:14.574Z,51.20
2019-04-22T12:35:42.330Z,51.20
2019-04-22T12:38:12.736Z,51.30
2019-04-22T12:40:47.599Z,51.30
2019-04-22T12:43:12.169Z,51.40
2019-04-22T12:45:40.337Z,51.30
2019-04-22T12:48:08.721Z,51.30
2019-04-22T12:50:41.891Z,51.30
2019-04-22T12:53:11.324Z,51.40
2019-04-22T12:55:37.559Z,51.40
2019-04-22T12:58:05.643Z,51.50
2019-04-22T13:00:34.327Z,51.40
2019-04-22T13:03:03.165Z,51.40
2019-04-22T13:05:31.424Z,51.50
2019-04-22T13:08:00.121Z,51.50
2019-04-22T13:10:40.624Z,51.50
2019-04-22T13:12:58.692Z,51.50
2019-04-22T13:15:26.794Z,51.50
2019-04-22T13:18:06.052Z,51.50
2019-04-22T13:20:24.428Z,51.40
2019-04-22T13:22:54.621Z,51.50
2019-04-22T13:25:25.007Z,52.00
2019-04-22T13:27:53.315Z,51.30
2019-04-22T13:30:22.789Z,51.10
2019-04-22T13:32:52.671Z,51.00
2019-04-22T13:35:22.179Z,51.00
2019-04-22T13:37:53.057Z,50.90
2019-04-22T13:40:21.153Z,50.80
2019-04-22T13:42:49.213Z,50.60
2019-04-22T13:45:17.915Z,50.50
2019-04-22T13:48:06.756Z,50.50
2019-04-22T13:50:49.384Z,50.40
2019-04-22T13:58:01.046Z,50.00
2019-04-22T14:00:16.600Z,50.10
2019-04-22T14:03:02.511Z,50.10
2019-04-22T14:05:31.104Z,50.10
2019-04-22T14:08:00.892Z,49.90
2019-04-22T14:10:30.194Z,49.80
2019-04-22T14:13:00.287Z,49.90
2019-04-22T14:15:28.084Z,49.90
2019-04-22T14:17:56.818Z,49.90
2019-04-22T14:20:28.696Z,49.90
2019-04-22T14:22:54.862Z,49.90
2019-04-22T14:25:22.992Z,49.90
2019-04-22T14:27:58.426Z,49.90
2019-04-22T14:30:20.978Z,49.70
2019-04-22T14:32:48.882Z,49.70
2019-04-22T14:35:17.122Z,49.80
2019-04-22T14:37:45.824Z,49.80
2019-04-22T14:40:16.076Z,49.70
2019-04-22T14:43:05.924Z,50.30
2019-04-22T14:45:42.318Z,49.60
2019-04-22T14:48:07.726Z,48.60
2019-04-22T14:50:35.478Z,48.90
2019-04-22T14:53:04.331Z,49.20
2019-04-22T14:55:20.831Z,49.20
2019-04-22T14:57:43.847Z,49.00
2019-04-22T15:00:13.700Z,49.20
2019-04-22T15:02:41.824Z,49.70
2019-04-22T15:05:10.185Z,48.90
2019-04-22T15:07:39.437Z,49.00
2019-04-22T15:10:08.236Z,49.00
2019-04-22T15:12:42.322Z,49.10
2019-04-22T15:15:25.302Z,49.10
2019-04-22T15:17:58.903Z,49.40
2019-04-22T15:20:43.766Z,49.40
2019-04-22T15:23:12.687Z,49.60
2019-04-22T15:25:40.827Z,49.60
2019-04-22T15:28:09.088Z,49.60
2019-04-22T15:30:37.522Z,49.70
2019-04-22T15:33:05.674Z,49.70
2019-04-22T15:35:35.404Z,49.80
2019-04-22T15:38:04.792Z,49.80
2019-04-22T15:40:34.441Z,49.90
2019-04-22T15:43:02.681Z,49.80
2019-04-22T15:45:31.066Z,49.90
2019-04-22T15:47:59.924Z,49.90
2019-04-22T15:50:28.678Z,50.00
2019-04-22T15:52:58.872Z,50.10
2019-04-22T15:55:27.130Z,50.20
2019-04-22T15:57:55.461Z,50.10
2019-04-22T16:00:37.356Z,50.80
2019-04-22T16:02:53.242Z,50.30
2019-04-22T16:05:22.243Z,50.40
2019-04-22T16:07:50.880Z,50.30
2019-04-22T16:10:19.809Z,50.30
2019-04-22T16:12:57.452Z,50.30
2019-04-22T16:15:18.329Z,50.20
2019-04-22T16:17:46.820Z,50.40
2019-04-22T16:20:15.163Z,50.40
2019-04-22T16:23:01.503Z,50.30
2019-04-22T16:25:47.484Z,50.30
2019-04-22T16:28:15.634Z,50.30
2019-04-22T16:30:43.895Z,50.40
2019-04-22T16:33:13.092Z,50.40
2019-04-22T16:35:42.552Z,50.30
2019-04-22T16:38:11.182Z,50.40
2019-04-22T16:40:40.763Z,50.40
2019-04-22T16:43:10.136Z,50.30
2019-04-22T16:45:39.882Z,50.40
2019-04-22T16:48:09.289Z,50.80
2019-04-22T16:50:40.957Z,50.30
2019-04-22T16:53:08.168Z,50.60
2019-04-22T16:55:36.918Z,50.90
2019-04-22T16:58:05.331Z,50.30
2019-04-22T17:00:34.425Z,49.80
2019-04-22T17:03:30.907Z,50.60
2019-04-22T17:06:21.591Z,50.40
2019-04-22T17:08:50.776Z,50.30
2019-04-22T17:11:20.191Z,50.30
2019-04-22T17:13:49.739Z,50.30
2019-04-22T17:16:18.103Z,50.30
2019-04-22T17:18:47.141Z,50.30
2019-04-22T17:21:15.469Z,49.90
2019-04-22T17:23:43.567Z,50.30
2019-04-22T17:26:12.573Z,50.30
2019-04-22T17:28:41.702Z,49.90
2019-04-22T17:31:10.903Z,49.30
2019-04-22T17:33:39.420Z,49.50
2019-04-22T17:36:09.369Z,49.10
2019-04-22T17:38:50.421Z,48.40
2019-04-22T17:41:20.850Z,48.50
2019-04-22T17:44:00.268Z,48.60
2019-04-22T17:46:31.013Z,48.60
2019-04-22T17:49:15.362Z,48.40
2019-04-22T17:52:04.535Z,48.20
2019-04-22T17:54:35.859Z,47.90
2019-04-22T17:57:01.749Z,47.90
2019-04-22T17:59:32.257Z,48.00
2019-04-22T18:01:58.286Z,47.90
2019-04-22T18:04:14.391Z,48.40
2019-04-22T18:07:12.318Z,48.90
2019-04-22T18:09:57.920Z,49.00
2019-04-22T18:12:08.566Z,48.70
2019-04-22T18:14:44.975Z,47.90
2019-04-22T18:17:08.347Z,48.20
2019-04-22T18:19:32.199Z,48.70
2019-04-22T18:21:57.163Z,48.00
2019-04-22T18:24:21.969Z,48.20
2019-04-22T18:27:18.557Z,47.90
2019-04-22T18:29:34.390Z,48.30
2019-04-22T18:31:50.195Z,48.10
2019-04-22T18:34:25.598Z,47.50
2019-04-22T18:36:59.106Z,47.70
2019-04-22T18:39:37.402Z,46.90
2019-04-22T18:42:00.863Z,47.60
2019-04-22T18:44:35.129Z,48.50
2019-04-22T18:46:56.696Z,49.50
2019-04-22T18:49:28.059Z,50.00
2019-04-22T18:52:19.953Z,50.10
2019-04-22T18:55:08.561Z,50.10
2019-04-22T18:57:52.158Z,50.30
2019-04-22T19:00:12.214Z,50.30
2019-04-22T19:02:47.615Z,50.50
2019-04-22T19:05:24.570Z,50.70
2019-04-22T19:08:10.640Z,50.90
2019-04-22T19:10:37.764Z,51.00
2019-04-22T19:13:31.124Z,51.00
2019-04-22T19:15:35.000Z,51.10
2019-04-22T19:18:01.900Z,51.40
2019-04-22T19:20:34.058Z,51.20
2019-04-22T19:23:04.017Z,51.20
2019-04-22T19:25:28.225Z,51.40
2019-04-22T19:28:01.153Z,51.50
2019-04-22T19:30:30.048Z,51.30
2019-04-22T19:33:00.662Z,51.20
2019-04-22T19:35:25.712Z,51.20
2019-04-22T19:37:52.252Z,51.30
2019-04-22T19:40:34.185Z,51.40
2019-04-22T19:43:03.957Z,51.70
2019-04-22T19:45:19.955Z,51.70
2019-04-22T19:48:06.557Z,51.70
2019-04-22T19:50:27.971Z,51.80
2019-04-22T19:53:01.651Z,51.70
2019-04-22T19:55:25.490Z,52.00
2019-04-22T19:57:54.772Z,51.90
2019-04-22T20:00:28.796Z,51.90
2019-04-22T20:03:22.772Z,51.90
2019-04-22T20:05:54.590Z,52.00
2019-04-22T20:08:36.684Z,52.00
2019-04-22T20:10:56.018Z,51.90
2019-04-22T20:13:24.239Z,52.00
2019-04-22T20:15:43.281Z,52.00
2019-04-22T20:18:35.332Z,52.00
2019-04-22T20:21:00.985Z,52.00
2019-04-22T20:23:15.930Z,51.90
2019-04-22T20:25:46.421Z,52.00
2019-04-22T20:28:25.590Z,52.10
2019-04-22T20:30:50.531Z,52.10
2019-04-22T20:33:26.275Z,52.10
2019-04-22T20:35:52.053Z,52.20
2019-04-22T20:38:21.375Z,52.20
2019-04-22T20:40:53.017Z,52.20
2019-04-22T20:43:29.198Z,52.20
2019-04-22T20:45:55.902Z,52.20
2019-04-22T20:48:07.984Z,52.20
2019-04-22T20:50:52.906Z,52.20
2019-04-22T20:53:26.215Z,52.20
2019-04-22T20:55:57.069Z,52.30
2019-04-22T20:58:21.217Z,52.20
2019-04-22T21:00:45.297Z,52.20
2019-04-22T21:03:10.400Z,51.60
2019-04-22T21:05:40.113Z,52.30
2019-04-22T21:08:18.985Z,52.10
2019-04-22T21:10:43.198Z,52.20
2019-04-22T21:13:13.936Z,52.20
2019-04-22T21:15:49.500Z,52.20
2019-04-22T21:18:17.157Z,52.10
2019-04-22T21:20:54.770Z,52.10
2019-04-22T21:23:16.469Z,52.20
2019-04-22T21:25:36.908Z,52.20
2019-04-22T21:28:21.886Z,52.20
2019-04-22T21:30:48.196Z,52.30
2019-04-22T21:33:13.882Z,52.20
2019-04-22T21:36:03.028Z,52.20
2019-04-22T21:38:24.817Z,52.20
2019-04-22T21:40:45.622Z,51.90
2019-04-22T21:43:19.944Z,52.70
2019-04-22T21:45:44.871Z,52.10
2019-04-22T21:48:26.232Z,52.10
2019-04-22T21:53:29.195Z,52.10
2019-04-22T21:55:51.467Z,52.10
2019-04-22T21:58:39.709Z,52.50
2019-04-22T22:03:54.898Z,52.20
2019-04-22T22:06:14.940Z,52.10
2019-04-22T22:08:51.286Z,52.20
2019-04-22T22:11:19.897Z,52.20
2019-04-22T22:13:50.270Z,52.20
2019-04-22T22:16:19.190Z,52.30
2019-04-22T22:18:58.008Z,52.30
2019-04-22T22:23:49.442Z,52.30
2019-04-22T22:26:17.326Z,52.40
2019-04-22T22:28:57.377Z,52.50
2019-04-22T22:31:28.650Z,52.50
2019-04-22T22:33:54.335Z,52.40
2019-04-22T22:36:16.356Z,52.40
2019-04-22T22:38:45.414Z,52.40
2019-04-22T22:41:00.134Z,52.50
2019-04-22T22:43:35.252Z,52.40
2019-04-22T22:46:10.338Z,52.50
2019-04-22T22:48:51.538Z,52.30
2019-04-22T22:51:15.096Z,52.30
2019-04-22T22:53:51.510Z,52.20
2019-04-22T22:56:18.951Z,52.10
2019-04-22T22:58:48.421Z,52.10
2019-04-22T23:01:15.078Z,52.10
2019-04-22T23:04:04.018Z,52.10
2019-04-22T23:06:20.599Z,52.10
2019-04-22T23:08:52.471Z,52.10
2019-04-22T23:11:27.382Z,52.10
2019-04-22T23:13:44.317Z,52.20
2019-04-22T23:16:04.720Z,52.20
2019-04-22T23:18:25.763Z,52.70
2019-04-22T23:20:57.288Z,52.30
2019-04-22T23:23:46.139Z,52.20
2019-04-22T23:26:29.738Z,52.20
2019-04-22T23:29:02.979Z,52.10
2019-04-22T23:31:37.211Z,52.30
2019-04-22T23:34:38.878Z,52.20
2019-04-22T23:37:08.469Z,52.10
2019-04-22T23:39:56.149Z,52.10
2019-04-22T23:42:23.579Z,52.20
2019-04-22T23:44:50.115Z,52.20
2019-04-22T23:47:14.866Z,52.20
2019-04-22T23:49:53.465Z,52.20
2019-04-22T23:52:23.981Z,52.40
2019-04-22T23:54:58.789Z,52.20
2019-04-22T23:57:31.335Z,52.40
